Time;durP1;ratioP1;P1;durP2;ratioP2;P2;SDS_P1;SDS_P2;PMS_P1;PMS_P2;Temp;Humidity;BMP_temperature;BMP_pressure;BME280_temperature;BME280_humidity;BME280_pressure;Samples;Min_cycle;Max_cycle;Signal;HPM_P1;HPM_P2
2023/06/14 00:00:48;;;;;;;9.25;8.95;;;17.70;99.90;;;;;;5026228;28;20236;-82
2023/06/14 00:03:17;;;;;;;9.30;9.00;;;17.70;99.90;;;;;;5025931;28;20231;-83
2023/06/14 00:05:46;;;;;;;9.20;8.90;;;17.60;99.90;;;;;;5025874;28;20287;-83
2023/06/14 00:08:35;;;;;;;9.20;8.90;;;17.70;99.90;;;;;;5026744;28;20236;-83
2023/06/14 00:11:03;;;;;;;8.82;8.63;;;17.60;99.90;;;;;;5026211;28;20239;-83
2023/06/14 00:13:32;;;;;;;8.98;8.77;;;17.60;99.90;;;;;;5026770;28;20255;-83
2023/06/14 00:16:06;;;;;;;9.20;8.90;;;17.60;99.90;;;;;;5026055;28;20248;-83
2023/06/14 00:18:34;;;;;;;9.00;8.80;;;17.60;99.90;;;;;;5026608;28;20287;-82
2023/06/14 00:21:03;;;;;;;9.40;9.10;;;17.60;99.90;;;;;;5026071;28;20263;-82
2023/06/14 00:23:35;;;;;;;8.75;8.55;;;17.60;99.90;;;;;;5026509;28;20248;-83
2023/06/14 00:26:02;;;;;;;8.90;8.70;;;17.60;99.90;;;;;;5026197;28;20267;-83
2023/06/14 00:28:30;;;;;;;8.68;8.48;;;17.60;99.90;;;;;;5025987;28;20307;-82
2023/06/14 00:31:01;;;;;;;8.70;8.50;;;17.50;99.90;;;;;;5027697;28;20265;-81
2023/06/14 00:33:30;;;;;;;8.55;8.35;;;17.50;99.90;;;;;;5026245;28;20240;-83
2023/06/14 00:35:59;;;;;;;8.52;8.32;;;17.50;99.90;;;;;;5025732;28;20300;-83
2023/06/14 00:38:28;;;;;;;8.50;8.30;;;17.50;99.90;;;;;;5025931;28;20286;-83
2023/06/14 00:41:06;;;;;;;8.85;8.65;;;17.50;99.90;;;;;;5025840;28;20235;-83
2023/06/14 00:43:35;;;;;;;8.65;8.45;;;17.50;99.90;;;;;;5025754;28;20236;-83
2023/06/14 00:46:06;;;;;;;8.93;8.73;;;17.50;99.90;;;;;;5025950;28;20236;-83
2023/06/14 00:48:36;;;;;;;8.70;8.50;;;17.50;99.90;;;;;;5028065;28;20282;-83
2023/06/14 00:51:04;;;;;;;8.60;8.40;;;17.50;99.90;;;;;;5027889;28;20251;-84
2023/06/14 00:53:35;;;;;;;8.82;8.63;;;17.40;99.90;;;;;;5027183;28;21040;-81
2023/06/14 00:56:06;;;;;;;8.90;8.70;;;17.40;99.90;;;;;;5025197;28;20228;-79
2023/06/14 00:58:34;;;;;;;8.77;8.57;;;17.30;99.90;;;;;;5027635;28;20264;-83
2023/06/14 01:01:02;;;;;;;8.70;8.50;;;17.30;99.90;;;;;;5027363;28;20310;-81
2023/06/14 01:03:32;;;;;;;8.77;8.57;;;17.20;99.90;;;;;;5026743;28;20283;-81
2023/06/14 01:06:12;;;;;;;9.38;9.07;;;17.10;99.90;;;;;;5025288;28;20236;-81
2023/06/14 01:08:58;;;;;;;8.95;8.75;;;17.00;99.90;;;;;;5027947;28;20216;-82
2023/06/14 01:11:35;;;;;;;9.23;8.95;;;16.90;99.90;;;;;;5024183;28;20333;-82
2023/06/14 01:14:05;;;;;;;8.98;8.77;;;16.80;99.90;;;;;;5027256;28;20239;-83
2023/06/14 01:16:35;;;;;;;8.90;8.70;;;16.60;99.90;;;;;;5040540;28;20252;-82
2023/06/14 01:19:05;;;;;;;8.90;8.70;;;16.40;99.90;;;;;;5042194;28;20216;-82
2023/06/14 01:21:41;;;;;;;8.65;8.45;;;16.30;99.90;;;;;;5040482;28;20231;-82
2023/06/14 01:24:25;;;;;;;9.07;8.88;;;16.20;99.90;;;;;;5039876;28;20283;-83
2023/06/14 01:26:58;;;;;;;9.50;9.20;;;16.10;99.90;;;;;;5034787;28;20228;-82
2023/06/14 01:29:32;;;;;;;9.02;8.82;;;16.10;99.90;;;;;;5040648;28;20212;-83
2023/06/14 01:32:00;;;;;;;9.32;9.02;;;16.00;99.90;;;;;;5040476;28;20217;-82
2023/06/14 01:34:28;;;;;;;9.30;9.00;;;16.00;99.90;;;;;;5040428;28;20249;-83
2023/06/14 01:36:56;;;;;;;9.27;8.98;;;15.90;99.90;;;;;;5039896;28;20239;-82
2023/06/14 01:39:36;;;;;;;9.02;8.82;;;15.80;99.90;;;;;;5040342;28;20408;-83
2023/06/14 01:42:06;;;;;;;8.90;8.70;;;15.70;99.90;;;;;;5040596;28;20284;-82
2023/06/14 01:44:34;;;;;;;8.80;8.60;;;15.60;99.90;;;;;;5033782;28;20220;-82
2023/06/14 01:47:02;;;;;;;8.70;8.50;;;15.60;99.90;;;;;;5024952;28;20262;-82
2023/06/14 01:49:31;;;;;;;9.15;8.88;;;15.60;99.90;;;;;;5024637;28;20308;-82
2023/06/14 01:52:02;;;;;;;9.00;8.80;;;15.50;99.90;;;;;;5024680;28;20281;-81
2023/06/14 01:54:33;;;;;;;8.85;8.65;;;15.50;99.90;;;;;;5025043;28;20217;-82
2023/06/14 01:57:02;;;;;;;9.10;8.90;;;15.50;99.90;;;;;;5024034;28;20377;-83
2023/06/14 01:59:31;;;;;;;8.80;8.60;;;15.50;99.90;;;;;;5024412;28;20236;-82
2023/06/14 02:01:59;;;;;;;8.50;8.30;;;15.50;99.90;;;;;;5024242;28;20300;-82
2023/06/14 02:04:29;;;;;;;8.63;8.43;;;15.50;99.90;;;;;;5032492;28;20786;-83
2023/06/14 02:06:58;;;;;;;8.70;8.50;;;15.50;99.90;;;;;;5025122;28;20228;-82
2023/06/14 02:09:27;;;;;;;8.95;8.75;;;15.40;99.90;;;;;;5029896;28;20280;-83
2023/06/14 02:11:59;;;;;;;9.30;9.00;;;15.30;99.90;;;;;;5028921;28;20248;-83
2023/06/14 02:14:27;;;;;;;9.20;8.90;;;15.30;99.90;;;;;;5026330;28;20271;-82
2023/06/14 02:16:57;;;;;;;9.10;8.85;;;15.30;99.90;;;;;;5022939;28;20271;-82
2023/06/14 02:19:27;;;;;;;9.15;8.88;;;15.30;99.90;;;;;;5022393;28;20229;-82
2023/06/14 02:21:56;;;;;;;9.05;8.85;;;15.30;99.90;;;;;;5022818;28;20266;-83
2023/06/14 02:24:25;;;;;;;8.88;8.68;;;15.30;99.90;;;;;;5023023;28;20550;-82
2023/06/14 02:26:55;;;;;;;9.00;8.80;;;15.20;99.90;;;;;;5023177;28;20228;-82
2023/06/14 02:29:44;;;;;;;9.50;9.20;;;15.20;99.90;;;;;;5024023;28;20216;-83
2023/06/14 02:32:12;;;;;;;9.00;8.80;;;15.20;99.90;;;;;;5022943;28;20240;-82
2023/06/14 02:34:41;;;;;;;9.50;9.20;;;15.20;99.90;;;;;;5022306;28;20234;-82
2023/06/14 02:37:10;;;;;;;9.40;9.10;;;15.20;99.90;;;;;;5022640;28;20236;-83
2023/06/14 02:39:39;;;;;;;8.93;8.73;;;15.20;99.90;;;;;;5022449;28;20254;-83
2023/06/14 02:42:10;;;;;;;9.82;9.52;;;15.20;99.90;;;;;;5019330;28;20243;-82
2023/06/14 02:44:41;;;;;;;9.80;9.50;;;15.20;99.90;;;;;;5023016;28;20327;-83
2023/06/14 02:47:18;;;;;;;9.40;9.10;;;15.20;99.90;;;;;;5022286;28;20255;-83
2023/06/14 02:49:47;;;;;;;9.43;9.13;;;15.20;99.90;;;;;;5015571;28;20220;-82
2023/06/14 02:52:15;;;;;;;9.70;9.40;;;15.10;99.90;;;;;;5023409;28;20263;-82
2023/06/14 02:54:47;;;;;;;9.90;9.60;;;15.10;99.90;;;;;;5014917;28;20238;-82
2023/06/14 02:57:14;;;;;;;9.70;9.40;;;15.00;99.90;;;;;;5022905;28;20324;-83
2023/06/14 02:59:55;;;;;;;9.80;9.50;;;15.10;99.90;;;;;;5006806;28;20308;-82
2023/06/14 03:02:23;;;;;;;10.27;9.98;;;15.00;99.90;;;;;;5025794;28;20326;-81
2023/06/14 03:04:55;;;;;;;10.23;9.93;;;15.00;99.90;;;;;;5024717;28;20254;-81
2023/06/14 03:07:23;;;;;;;10.60;10.30;;;15.00;99.90;;;;;;5022720;28;20235;-82
2023/06/14 03:09:53;;;;;;;10.50;10.20;;;15.00;99.90;;;;;;5022101;28;20260;-82
2023/06/14 03:12:21;;;;;;;10.13;9.82;;;15.00;99.90;;;;;;5023038;28;20252;-82
2023/06/14 03:15:01;;;;;;;10.13;9.82;;;15.00;99.90;;;;;;5024499;28;20235;-82
2023/06/14 03:17:33;;;;;;;10.20;9.90;;;15.00;99.90;;;;;;5021875;28;20224;-82
2023/06/14 03:20:08;;;;;;;10.00;9.70;;;15.00;99.90;;;;;;5021977;28;20225;-83
2023/06/14 03:22:36;;;;;;;10.10;9.80;;;15.00;99.90;;;;;;5023133;28;20227;-82
2023/06/14 03:25:05;;;;;;;10.10;9.80;;;15.00;99.90;;;;;;5023182;28;20243;-82
2023/06/14 03:27:35;;;;;;;9.95;9.65;;;15.00;99.90;;;;;;5022977;28;20224;-83
2023/06/14 03:30:12;;;;;;;9.80;9.50;;;15.00;99.90;;;;;;5023149;28;20349;-82
2023/06/14 03:32:43;;;;;;;9.70;9.40;;;15.00;99.90;;;;;;5024831;28;20244;-83
2023/06/14 03:35:16;;;;;;;9.70;9.40;;;14.90;99.90;;;;;;5023918;28;20240;-83
2023/06/14 03:40:29;;;;;;;10.20;9.90;;;14.90;99.90;;;;;;5027148;28;20216;-82
2023/06/14 03:42:58;;;;;;;10.20;9.90;;;14.80;99.90;;;;;;5030967;28;20260;-83
2023/06/14 03:45:30;;;;;;;9.98;9.68;;;14.80;99.90;;;;;;5033657;28;20248;-83
2023/06/14 03:47:58;;;;;;;9.77;9.48;;;14.70;99.90;;;;;;5036395;28;20251;-82
2023/06/14 03:50:26;;;;;;;10.02;9.73;;;14.70;99.90;;;;;;5037477;28;20216;-82
2023/06/14 03:52:56;;;;;;;9.90;9.60;;;14.70;99.90;;;;;;5038405;28;20230;-81
2023/06/14 03:55:27;;;;;;;9.95;9.65;;;14.70;99.90;;;;;;5038637;28;20234;-82
2023/06/14 03:57:55;;;;;;;10.00;9.70;;;14.60;99.90;;;;;;5039417;28;20228;-82
2023/06/14 04:00:24;;;;;;;10.00;9.70;;;14.60;99.90;;;;;;5038982;28;20228;-82
2023/06/14 04:02:56;;;;;;;10.30;10.00;;;14.70;99.90;;;;;;5038898;28;20243;-82
2023/06/14 04:05:26;;;;;;;9.88;9.57;;;14.70;99.90;;;;;;5037320;28;20216;-82
2023/06/14 04:07:55;;;;;;;10.07;9.77;;;14.70;99.90;;;;;;5039369;28;20224;-82
2023/06/14 04:10:23;;;;;;;10.45;10.15;;;14.70;99.90;;;;;;5038668;28;20231;-83
2023/06/14 04:12:51;;;;;;;10.20;9.90;;;14.70;99.90;;;;;;5039064;28;20239;-83
2023/06/14 04:15:21;;;;;;;10.35;10.05;;;14.70;99.90;;;;;;5038642;28;20279;-83
2023/06/14 04:17:52;;;;;;;10.13;9.82;;;14.70;99.90;;;;;;5039069;28;20227;-82
2023/06/14 04:20:24;;;;;;;10.30;10.00;;;14.70;99.90;;;;;;5034453;28;20216;-83
2023/06/14 04:22:52;;;;;;;10.40;10.10;;;14.70;99.90;;;;;;5027804;28;20304;-83
2023/06/14 04:25:20;;;;;;;10.60;10.30;;;14.70;99.90;;;;;;5024764;28;20236;-83
2023/06/14 04:27:49;;;;;;;10.80;10.50;;;14.80;99.90;;;;;;5021514;28;20236;-83
2023/06/14 04:30:18;;;;;;;10.60;10.30;;;14.80;99.90;;;;;;5023237;28;20228;-83
2023/06/14 04:32:49;;;;;;;10.73;10.43;;;14.80;99.90;;;;;;5024337;28;20338;-82
2023/06/14 04:40:36;;;;;;;10.60;10.30;;;14.90;99.90;;;;;;5021120;28;20239;-88
2023/06/14 04:43:05;;;;;;;10.70;10.40;;;14.90;99.90;;;;;;5024224;28;20216;-88
2023/06/14 04:45:33;;;;;;;10.48;10.18;;;15.00;99.90;;;;;;5044677;28;20266;-88
2023/06/14 04:48:02;;;;;;;10.32;10.02;;;15.00;99.90;;;;;;5052063;28;20244;-88
2023/06/14 04:50:32;;;;;;;10.43;10.13;;;15.00;99.90;;;;;;5038733;28;20232;-87
2023/06/14 04:53:11;;;;;;;10.75;10.45;;;15.10;99.90;;;;;;5043998;28;20263;-87
2023/06/14 04:55:44;;;;;;;10.55;10.25;;;15.20;99.90;;;;;;5056959;28;20243;-87
2023/06/14 04:58:17;;;;;;;10.77;10.48;;;15.20;99.90;;;;;;5039557;28;20219;-87
2023/06/14 05:00:49;;;;;;;10.43;10.13;;;15.30;99.90;;;;;;5043166;28;20239;-88
2023/06/14 05:03:18;;;;;;;10.40;10.10;;;15.30;99.90;;;;;;5043837;28;20223;-87
2023/06/14 05:05:46;;;;;;;10.27;9.98;;;15.40;99.90;;;;;;5043657;28;20252;-87
2023/06/14 05:08:24;;;;;;;10.65;10.35;;;15.30;99.90;;;;;;5043867;28;20228;-88
2023/06/14 05:10:53;;;;;;;10.30;10.00;;;15.40;99.90;;;;;;5028390;28;20734;-87
2023/06/14 05:13:23;;;;;;;10.18;9.88;;;15.40;99.90;;;;;;5042985;28;20235;-87
2023/06/14 05:15:53;;;;;;;10.10;9.80;;;15.40;99.90;;;;;;5043296;28;20242;-88
2023/06/14 05:18:22;;;;;;;9.90;9.60;;;15.60;99.90;;;;;;5051467;28;20219;-87
2023/06/14 05:20:51;;;;;;;9.98;9.68;;;15.70;99.90;;;;;;5059921;28;20223;-88
2023/06/14 05:41:34;;;;;;;10.57;10.27;;;16.30;99.90;;;;;;4990280;28;20386;-87
2023/06/14 05:44:02;;;;;;;10.60;10.30;;;16.50;99.90;;;;;;5057029;28;20247;-86
2023/06/14 05:46:30;;;;;;;10.60;10.30;;;16.70;99.90;;;;;;5058650;28;20285;-86
2023/06/14 05:48:59;;;;;;;10.07;9.77;;;16.60;99.90;;;;;;5038818;28;20232;-86
2023/06/14 05:51:29;;;;;;;10.00;9.70;;;16.80;99.90;;;;;;5054487;28;20230;-87
2023/06/14 05:53:58;;;;;;;9.90;9.60;;;16.90;99.90;;;;;;5044572;28;20224;-87
2023/06/14 05:56:28;;;;;;;9.82;9.52;;;17.00;99.90;;;;;;5026409;28;20233;-88
2023/06/14 06:01:44;;;;;;;9.73;9.43;;;17.10;99.90;;;;;;5044259;28;20228;-88
2023/06/14 06:04:13;;;;;;;10.00;9.70;;;17.00;99.90;;;;;;5044142;28;20224;-87
2023/06/14 06:06:43;;;;;;;10.00;9.70;;;17.00;99.90;;;;;;5044887;28;20228;-88
2023/06/14 06:09:14;;;;;;;10.50;10.20;;;17.00;99.90;;;;;;5048044;28;20227;-88
2023/06/14 06:11:42;;;;;;;10.32;10.02;;;17.00;99.90;;;;;;5045976;28;20235;-87
2023/06/14 06:14:14;;;;;;;10.18;9.88;;;17.10;99.90;;;;;;5045708;28;20219;-87
2023/06/14 06:16:42;;;;;;;10.48;10.18;;;17.30;99.90;;;;;;5045462;28;20234;-87
2023/06/14 06:19:12;;;;;;;10.25;9.95;;;17.50;99.90;;;;;;5045449;28;20232;-89
2023/06/14 06:21:42;;;;;;;10.30;10.00;;;17.70;99.90;;;;;;5043303;28;20314;-88
2023/06/14 06:24:11;;;;;;;10.70;10.40;;;17.80;99.90;;;;;;5042729;28;20231;-88
2023/06/14 06:26:41;;;;;;;10.43;10.13;;;18.00;99.90;;;;;;5042322;28;20235;-86
2023/06/14 06:29:11;;;;;;;10.60;10.30;;;18.10;99.90;;;;;;5042091;28;20234;-86
2023/06/14 06:31:39;;;;;;;10.55;10.25;;;18.20;99.90;;;;;;5042342;28;20239;-86
2023/06/14 06:34:09;;;;;;;10.32;10.02;;;18.20;99.90;;;;;;5042383;28;20287;-86
2023/06/14 06:36:37;;;;;;;10.23;9.93;;;18.20;99.90;;;;;;5044364;28;20203;-85
2023/06/14 06:39:10;;;;;;;10.20;9.90;;;18.10;99.90;;;;;;5057717;28;20216;-86
2023/06/14 06:41:39;;;;;;;10.13;9.82;;;18.00;99.90;;;;;;5045275;28;20236;-86
2023/06/14 06:44:07;;;;;;;10.18;9.88;;;18.10;99.90;;;;;;5042663;28;20254;-87
2023/06/14 06:49:24;;;;;;;10.70;10.40;;;18.30;99.90;;;;;;5056331;28;20270;-87
2023/06/14 06:52:02;;;;;;;10.18;9.88;;;18.40;99.90;;;;;;5053509;28;20231;-87
2023/06/14 06:54:32;;;;;;;10.27;9.98;;;18.50;99.90;;;;;;5051058;28;20242;-86
2023/06/14 06:56:59;;;;;;;10.52;10.23;;;18.50;99.90;;;;;;5050662;28;20235;-86
2023/06/14 06:59:30;;;;;;;10.13;9.82;;;18.50;99.90;;;;;;5053984;28;20243;-87
2023/06/14 07:02:01;;;;;;;9.95;9.65;;;18.60;99.90;;;;;;5056399;28;20228;-86
2023/06/14 07:04:30;;;;;;;9.70;9.40;;;18.70;99.90;;;;;;5052412;28;20243;-87
2023/06/14 07:06:57;;;;;;;9.95;9.65;;;18.90;99.90;;;;;;5046259;28;20216;-86
2023/06/14 07:09:27;;;;;;;10.13;9.82;;;18.90;99.90;;;;;;5045726;28;20227;-86
2023/06/14 07:11:56;;;;;;;10.13;9.82;;;19.00;99.90;;;;;;5045631;28;20270;-86
2023/06/14 07:14:26;;;;;;;10.23;9.93;;;19.10;99.90;;;;;;5043669;28;20338;-88
2023/06/14 07:16:57;;;;;;;10.40;10.10;;;19.20;99.90;;;;;;5044867;28;20224;-86
2023/06/14 07:19:27;;;;;;;10.20;9.90;;;19.40;99.90;;;;;;5044798;28;20250;-87
2023/06/14 07:21:58;;;;;;;10.15;9.85;;;19.50;99.90;;;;;;5043171;28;20266;-86
2023/06/14 07:24:34;;;;;;;10.15;9.85;;;19.50;99.90;;;;;;5049458;28;20211;-86
2023/06/14 07:27:04;;;;;;;10.18;9.88;;;19.60;99.90;;;;;;5028827;28;20236;-85
2023/06/14 07:29:32;;;;;;;9.60;9.30;;;19.80;99.90;;;;;;5042587;28;20305;-87
2023/06/14 07:32:02;;;;;;;9.60;9.30;;;19.70;99.90;;;;;;5042312;28;20258;-86
2023/06/14 07:34:33;;;;;;;9.50;9.20;;;19.70;99.90;;;;;;5042247;28;20228;-86
2023/06/14 07:39:46;;;;;;;9.95;9.65;;;19.90;99.90;;;;;;5041839;28;20713;-86
2023/06/14 07:42:16;;;;;;;9.30;9.00;;;20.00;99.90;;;;;;5042403;28;21045;-85
2023/06/14 07:44:46;;;;;;;9.48;9.18;;;20.20;99.90;;;;;;5043228;28;20270;-86
2023/06/14 07:47:15;;;;;;;9.90;9.60;;;20.30;99.90;;;;;;5042368;28;20757;-85
2023/06/14 07:52:32;;;;;;;10.00;9.70;;;20.50;99.90;;;;;;5044539;28;20230;-85
2023/06/14 07:55:01;;;;;;;10.10;9.80;;;20.60;99.90;;;;;;5044292;28;20223;-85
2023/06/14 07:57:30;;;;;;;10.13;9.82;;;20.70;99.90;;;;;;5045616;28;20254;-85
2023/06/14 08:00:00;;;;;;;9.90;9.60;;;20.80;99.90;;;;;;5044664;28;20313;-85
2023/06/14 08:02:29;;;;;;;9.90;9.60;;;20.80;99.90;;;;;;5033781;28;20255;-85
2023/06/14 08:07:45;;;;;;;10.10;9.80;;;20.90;99.90;;;;;;5045797;28;20208;-86
2023/06/14 08:10:15;;;;;;;9.88;9.57;;;21.00;99.90;;;;;;5046432;28;20228;-85
2023/06/14 08:12:45;;;;;;;10.10;9.80;;;21.10;99.90;;;;;;5035784;28;20243;-85
2023/06/14 08:15:14;;;;;;;9.27;8.98;;;21.10;99.90;;;;;;5042488;28;20240;-84
2023/06/14 08:17:45;;;;;;;9.50;9.20;;;21.20;99.90;;;;;;5052834;28;20230;-86
2023/06/14 08:20:25;;;;;;;9.20;8.90;;;21.40;99.90;;;;;;5062168;28;20220;-82
2023/06/14 08:22:55;;;;;;;9.52;9.23;;;21.40;99.90;;;;;;5062030;28;20250;-84
2023/06/14 08:25:23;;;;;;;9.80;9.50;;;21.50;99.90;;;;;;5059726;28;20261;-85
2023/06/14 08:27:53;;;;;;;9.65;9.35;;;21.50;99.90;;;;;;5046249;28;20226;-84
2023/06/14 08:30:21;;;;;;;10.48;10.18;;;21.70;99.90;;;;;;5045942;28;20340;-86
2023/06/14 08:32:51;;;;;;;10.25;9.95;;;21.80;99.90;;;;;;5046281;28;20228;-86
2023/06/14 08:35:22;;;;;;;10.07;9.77;;;21.80;99.90;;;;;;5051631;28;20239;-85
2023/06/14 08:37:51;;;;;;;9.73;9.43;;;22.00;99.90;;;;;;5056977;28;20281;-88
2023/06/14 08:40:31;;;;;;;9.50;9.20;;;22.20;99.90;;;;;;5064045;28;20230;-85
2023/06/14 08:43:08;;;;;;;9.10;8.85;;;22.30;99.90;;;;;;5053908;28;20236;-88
2023/06/14 08:45:35;;;;;;;9.02;8.82;;;22.40;99.90;;;;;;5045130;28;20301;-88
2023/06/14 08:48:17;;;;;;;9.00;8.80;;;22.70;99.90;;;;;;5052177;28;20527;-87
2023/06/14 08:50:51;;;;;;;9.23;8.93;;;22.90;99.90;;;;;;5039316;28;20231;-88
2023/06/14 08:53:35;;;;;;;;;;;;;;;;;;;;;
2023/06/14 08:56:13;;;;;;;8.85;8.65;;;23.00;99.90;;;;;;5045454;28;20231;-86
2023/06/14 08:58:49;;;;;;;9.18;8.88;;;23.00;99.90;;;;;;5045561;28;20212;-86
2023/06/14 09:01:17;;;;;;;9.50;9.20;;;23.20;99.90;;;;;;5045589;28;20235;-87
2023/06/14 09:03:57;;;;;;;8.90;8.70;;;23.30;99.90;;;;;;5044892;28;20234;-86
2023/06/14 09:09:30;;;;;;;;;;;;;;;;;;;;;
2023/06/14 09:12:10;;;;;;;9.50;9.20;;;23.40;99.90;;;;;;5041419;28;20238;-87
2023/06/14 09:14:46;;;;;;;9.30;9.00;;;23.40;99.90;;;;;;5046824;28;20326;-89
2023/06/14 09:17:16;;;;;;;9.40;9.10;;;23.60;99.90;;;;;;5043653;28;20305;-88
2023/06/14 09:25:18;;;;;;;9.80;9.50;;;24.50;99.90;;;;;;5041936;28;20224;-88
2023/06/14 09:27:48;;;;;;;9.75;9.45;;;24.70;99.90;;;;;;5044210;28;20234;-88
2023/06/14 09:30:17;;;;;;;9.88;9.57;;;24.70;99.90;;;;;;5043710;28;20223;-88
2023/06/14 09:35:42;;;;;;;10.38;10.07;;;24.30;99.90;;;;;;5047061;28;20238;-90
2023/06/14 09:38:38;;;;;;;10.10;9.80;;;24.30;99.90;;;;;;5049100;28;20227;-89
2023/06/14 09:41:07;;;;;;;10.40;10.10;;;24.70;99.90;;;;;;5044980;28;20268;-89
2023/06/14 09:43:37;;;;;;;10.13;9.82;;;24.40;99.90;;;;;;5044774;28;20301;-89
2023/06/14 09:46:10;;;;;;;10.00;9.70;;;24.00;99.90;;;;;;5044589;28;20239;-89
2023/06/14 09:48:42;;;;;;;9.90;9.60;;;23.70;99.90;;;;;;5044008;28;20224;-88
2023/06/14 09:51:15;;;;;;;9.70;9.40;;;23.60;99.90;;;;;;5044426;28;20223;-87
2023/06/14 09:53:53;;;;;;;9.30;9.00;;;23.50;99.90;;;;;;5045452;28;20234;-87
2023/06/14 09:56:30;;;;;;;9.80;9.50;;;23.20;99.90;;;;;;5044296;28;20282;-88
2023/06/14 09:59:10;;;;;;;9.88;9.57;;;23.00;99.90;;;;;;5044720;28;20219;-88
2023/06/14 10:15:01;;;;;;;10.00;9.70;;;23.20;99.90;;;;;;5039312;28;21058;-87
2023/06/14 10:17:39;;;;;;;10.15;9.85;;;23.10;99.90;;;;;;5045110;28;20306;-83
2023/06/14 10:20:24;;;;;;;9.85;9.55;;;23.00;99.90;;;;;;5043558;28;20227;-80
2023/06/14 10:23:13;;;;;;;9.95;9.65;;;23.00;99.90;;;;;;5043106;28;20223;-90
2023/06/14 10:25:41;;;;;;;9.70;9.40;;;23.10;99.90;;;;;;5044730;28;20235;-83
2023/06/14 10:28:30;;;;;;;9.80;9.50;;;23.10;99.90;;;;;;5045045;28;20238;-84
2023/06/14 10:31:08;;;;;;;9.88;9.57;;;23.30;99.90;;;;;;5044116;28;20234;-85
2023/06/14 10:33:37;;;;;;;10.15;9.85;;;24.00;99.90;;;;;;5044497;28;20255;-83
2023/06/14 10:36:32;;;;;;;10.60;10.30;;;24.50;99.90;;;;;;5043891;28;20231;-82
2023/06/14 10:41:57;;;;;;;10.55;10.25;;;25.00;99.90;;;;;;5039702;28;20218;-89
2023/06/14 10:45:03;;;;;;;10.45;10.15;;;25.00;99.90;;;;;;5043333;28;20287;-87
2023/06/14 10:47:34;;;;;;;10.88;10.57;;;25.10;99.90;;;;;;5039368;28;20236;-84
2023/06/14 10:50:10;;;;;;;10.48;10.18;;;25.10;99.90;;;;;;5040927;28;20235;-88
2023/06/14 10:52:41;;;;;;;10.77;10.48;;;25.00;99.90;;;;;;5063804;28;20230;-87
2023/06/14 10:55:18;;;;;;;10.50;10.20;;;24.70;99.90;;;;;;5032811;28;20247;-86
2023/06/14 10:57:51;;;;;;;10.70;10.40;;;24.50;99.90;;;;;;5025324;28;20243;-87
2023/06/14 11:00:25;;;;;;;10.20;9.90;;;24.70;99.90;;;;;;5053096;28;20297;-88
2023/06/14 11:03:40;;;;;;;10.25;9.95;;;25.10;99.90;;;;;;5039556;28;20335;-85
2023/06/14 11:06:17;;;;;;;10.07;9.77;;;25.90;99.90;;;;;;5037064;28;20258;-88
2023/06/14 11:09:21;;;;;;;10.30;10.00;;;26.30;99.90;;;;;;5046486;28;20257;-86
2023/06/14 11:11:50;;;;;;;10.10;9.80;;;26.30;99.90;;;;;;5042318;28;20239;-87
2023/06/14 11:14:20;;;;;;;10.55;10.25;;;26.10;99.90;;;;;;5042148;28;20290;-88
2023/06/14 11:16:52;;;;;;;10.35;10.05;;;25.90;99.90;;;;;;5041450;28;20235;-87
2023/06/14 11:19:20;;;;;;;10.50;10.20;;;25.80;99.90;;;;;;5058691;28;20223;-88
2023/06/14 11:21:49;;;;;;;11.30;11.00;;;25.60;99.90;;;;;;5050061;28;20232;-87
2023/06/14 11:24:20;;;;;;;10.70;10.40;;;25.20;99.90;;;;;;5058315;28;20342;-87
2023/06/14 11:26:49;;;;;;;10.35;10.05;;;24.90;99.90;;;;;;5028138;28;20265;-88
2023/06/14 11:29:18;;;;;;;10.40;10.10;;;24.60;99.90;;;;;;5066728;28;20214;-86
2023/06/14 11:31:46;;;;;;;10.50;10.20;;;25.00;99.90;;;;;;5061384;28;20230;-86
2023/06/14 11:34:25;;;;;;;10.40;10.10;;;25.40;99.90;;;;;;5051674;28;20265;-86
2023/06/14 11:36:53;;;;;;;10.45;10.15;;;26.10;99.90;;;;;;5069585;28;20230;-87
2023/06/14 11:39:33;;;;;;;10.75;10.45;;;26.60;99.90;;;;;;5078998;28;20221;-86
2023/06/14 11:42:03;;;;;;;10.45;10.15;;;26.70;99.90;;;;;;5045931;28;20234;-85
2023/06/14 11:44:31;;;;;;;10.15;9.85;;;26.60;99.90;;;;;;5061135;28;20238;-86
2023/06/14 11:47:00;;;;;;;10.80;10.50;;;26.00;99.90;;;;;;5044606;28;21194;-86
2023/06/14 11:49:38;;;;;;;10.70;10.40;;;25.70;99.90;;;;;;5052618;28;20711;-85
2023/06/14 11:52:07;;;;;;;10.55;10.25;;;25.50;99.90;;;;;;5051043;28;20235;-86
2023/06/14 11:54:40;;;;;;;10.35;10.05;;;25.40;99.90;;;;;;5048576;28;20238;-85
2023/06/14 11:57:09;;;;;;;10.57;10.27;;;25.30;99.90;;;;;;5067245;28;20243;-85
2023/06/14 11:59:46;;;;;;;10.60;10.30;;;25.30;99.90;;;;;;5076663;28;20211;-87
2023/06/14 12:02:16;;;;;;;10.40;10.10;;;25.50;99.90;;;;;;5060532;28;20285;-81
2023/06/14 12:04:55;;;;;;;10.20;9.90;;;25.40;99.90;;;;;;5054623;28;20236;-88
2023/06/14 12:07:25;;;;;;;10.27;9.98;;;25.20;99.90;;;;;;5044716;28;20229;-86
2023/06/14 12:10:12;;;;;;;10.00;9.70;;;25.10;99.90;;;;;;5045219;28;20226;-86
2023/06/14 12:12:41;;;;;;;9.80;9.50;;;25.10;99.90;;;;;;5037980;28;20231;-87
2023/06/14 12:17:57;;;;;;;10.35;10.05;;;25.10;99.90;;;;;;5038098;28;20262;-88
2023/06/14 12:20:36;;;;;;;10.45;10.15;;;25.20;99.90;;;;;;5043215;28;20242;-87
2023/06/14 12:23:05;;;;;;;10.10;9.80;;;25.20;99.90;;;;;;5039587;28;20230;-86
2023/06/14 12:25:36;;;;;;;10.25;9.95;;;25.30;99.90;;;;;;5052905;28;20262;-82
2023/06/14 12:28:12;;;;;;;9.98;9.68;;;25.50;99.90;;;;;;5043692;28;20223;-82
2023/06/14 12:34:21;;;;;;;10.30;10.00;;;25.80;99.90;;;;;;4932193;28;20235;-80
2023/06/14 12:37:00;;;;;;;10.20;9.90;;;25.90;99.90;;;;;;5042701;28;20239;-82
2023/06/14 12:39:29;;;;;;;10.48;10.18;;;26.20;99.90;;;;;;5052175;28;20226;-82
2023/06/14 12:41:59;;;;;;;10.40;10.10;;;27.10;99.90;;;;;;5057356;28;20223;-81
2023/06/14 12:44:28;;;;;;;10.27;9.98;;;27.50;99.90;;;;;;5064176;28;20247;-81
2023/06/14 12:46:57;;;;;;;9.88;9.57;;;27.80;99.90;;;;;;5057988;28;20583;-82
2023/06/14 12:49:35;;;;;;;9.70;9.40;;;27.70;99.90;;;;;;5057361;28;20224;-83
2023/06/14 12:54:51;;;;;;;9.55;9.25;;;27.10;99.90;;;;;;5061279;28;20238;-83
2023/06/14 12:57:32;;;;;;;9.65;9.35;;;26.90;99.90;;;;;;5051079;28;20282;-83
2023/06/14 13:00:02;;;;;;;10.20;9.90;;;26.80;99.90;;;;;;5054263;28;20258;-84
2023/06/14 13:02:32;;;;;;;10.45;10.15;;;26.60;99.90;;;;;;5061339;28;20250;-82
2023/06/14 13:05:00;;;;;;;10.70;10.40;;;26.30;99.90;;;;;;5071924;28;20250;-83
2023/06/14 13:07:31;;;;;;;11.05;10.75;;;26.10;99.90;;;;;;5059966;28;20242;-82
2023/06/14 13:09:58;;;;;;;10.98;10.68;;;25.90;99.90;;;;;;5051698;28;20295;-83
2023/06/14 13:12:26;;;;;;;10.65;10.35;;;25.80;99.90;;;;;;5064486;28;20207;-82
2023/06/14 13:14:57;;;;;;;10.88;10.57;;;25.70;99.90;;;;;;5062068;28;20243;-83
2023/06/14 13:17:26;;;;;;;10.52;10.23;;;25.60;99.90;;;;;;5069692;28;20258;-82
2023/06/14 13:19:55;;;;;;;10.57;10.27;;;25.60;99.90;;;;;;5054762;28;20228;-82
2023/06/14 13:22:24;;;;;;;10.23;9.93;;;25.60;99.90;;;;;;5063545;28;20226;-81
2023/06/14 13:25:03;;;;;;;10.32;10.02;;;25.60;99.90;;;;;;5069959;28;20219;-81
2023/06/14 13:27:32;;;;;;;10.15;9.85;;;25.70;99.90;;;;;;5056016;28;20266;-81
2023/06/14 13:30:02;;;;;;;9.68;9.38;;;25.70;99.90;;;;;;5057785;28;20251;-82
2023/06/14 13:32:32;;;;;;;10.00;9.70;;;25.80;99.90;;;;;;5055692;28;20219;-83
2023/06/14 13:35:01;;;;;;;9.90;9.60;;;25.60;99.90;;;;;;5049181;28;20267;-83
2023/06/14 13:37:30;;;;;;;9.75;9.45;;;25.70;99.90;;;;;;5049255;28;20236;-82
2023/06/14 13:40:09;;;;;;;9.57;9.27;;;25.60;99.90;;;;;;5047308;28;20235;-80
2023/06/14 13:42:38;;;;;;;9.60;9.30;;;25.60;99.90;;;;;;5045011;28;20231;-81
2023/06/14 13:45:08;;;;;;;9.70;9.40;;;25.50;99.90;;;;;;5046810;28;20266;-81
2023/06/14 13:47:39;;;;;;;9.85;9.55;;;25.60;99.90;;;;;;5042967;28;20254;-81
2023/06/14 13:50:08;;;;;;;9.70;9.40;;;25.60;99.90;;;;;;5039493;28;20422;-80
2023/06/14 13:52:36;;;;;;;10.10;9.80;;;25.40;99.90;;;;;;5045956;28;20254;-81
2023/06/14 13:55:15;;;;;;;10.30;10.00;;;25.60;99.90;;;;;;5059993;28;20333;-81
2023/06/14 13:57:43;;;;;;;10.35;10.05;;;26.30;99.90;;;;;;5064129;28;20333;-81
2023/06/14 14:00:12;;;;;;;10.35;10.05;;;27.00;99.90;;;;;;5064047;28;20752;-81
2023/06/14 14:02:42;;;;;;;10.73;10.43;;;27.30;99.90;;;;;;5064461;28;20227;-81
2023/06/14 14:05:12;;;;;;;10.20;9.90;;;27.30;99.90;;;;;;5068069;28;20227;-81
2023/06/14 14:07:40;;;;;;;10.43;10.13;;;27.70;99.90;;;;;;5070123;28;20237;-81
2023/06/14 14:10:20;;;;;;;10.38;10.07;;;28.30;99.90;;;;;;5065293;28;20333;-81
2023/06/14 14:12:50;;;;;;;10.38;10.07;;;29.00;99.90;;;;;;5064742;28;20245;-80
2023/06/14 14:15:18;;;;;;;10.30;10.00;;;29.30;99.90;;;;;;5062641;28;20290;-83
2023/06/14 14:17:49;;;;;;;10.32;10.02;;;29.20;99.90;;;;;;5047189;28;20251;-83
2023/06/14 14:20:18;;;;;;;10.10;9.80;;;29.00;99.90;;;;;;5047007;28;20222;-83